Time;durP1;ratioP1;P1;durP2;ratioP2;P2;SDS_P1;SDS_P2;PMS_P1;PMS_P2;Temp;Humidity;BMP_temperature;BMP_pressure;BME280_temperature;BME280_humidity;BME280_pressure;Samples;Min_cycle;Max_cycle;Signal;HPM_P1;HPM_P2
2022/05/11 00:00:43;;;;;;;13.10;4.90;;;15.00;93.70;;;;;;5012580;28;20049;-42
2022/05/11 00:03:10;;;;;;;8.98;4.93;;;15.00;93.70;;;;;;5013876;28;20474;-42
2022/05/11 00:05:38;;;;;;;11.20;4.85;;;15.00;93.50;;;;;;5011755;28;20046;-42
2022/05/11 00:08:05;;;;;;;11.60;5.70;;;15.00;93.40;;;;;;5011189;28;20061;-42
2022/05/11 00:10:32;;;;;;;11.10;5.00;;;15.00;93.40;;;;;;5011895;28;20060;-42
2022/05/11 00:12:59;;;;;;;10.45;5.32;;;15.00;93.30;;;;;;5010237;28;20042;-41
2022/05/11 00:15:26;;;;;;;8.82;5.40;;;15.00;93.30;;;;;;5012541;28;20060;-43
2022/05/11 00:17:52;;;;;;;7.55;4.78;;;15.00;93.40;;;;;;5013493;28;20137;-42
2022/05/11 00:20:19;;;;;;;7.25;4.55;;;14.90;93.50;;;;;;5013236;28;20045;-42
2022/05/11 00:22:47;;;;;;;8.68;5.00;;;15.00;93.30;;;;;;5012282;28;20058;-42
2022/05/11 00:25:15;;;;;;;9.88;4.88;;;14.90;93.30;;;;;;5013144;28;20056;-42
2022/05/11 00:27:42;;;;;;;9.82;4.70;;;14.90;93.60;;;;;;5011192;28;20089;-42
2022/05/11 00:30:10;;;;;;;11.75;4.90;;;14.90;93.70;;;;;;5013138;28;20046;-42
2022/05/11 00:32:36;;;;;;;7.10;4.35;;;14.80;93.70;;;;;;5011365;28;20053;-41
2022/05/11 00:35:03;;;;;;;12.02;4.35;;;14.80;93.50;;;;;;5013221;28;20053;-42
2022/05/11 00:37:30;;;;;;;10.25;4.50;;;14.80;93.50;;;;;;5011496;28;20477;-42
2022/05/11 00:39:59;;;;;;;8.02;4.80;;;14.80;93.70;;;;;;5004301;28;20054;-42
2022/05/11 00:42:25;;;;;;;8.93;4.95;;;14.80;93.90;;;;;;5012569;28;20061;-42
2022/05/11 00:44:54;;;;;;;7.15;5.05;;;14.80;93.80;;;;;;5008382;28;20141;-42
2022/05/11 00:47:22;;;;;;;8.95;4.93;;;14.80;94.10;;;;;;5010845;28;20045;-42
2022/05/11 00:49:50;;;;;;;10.88;4.93;;;14.70;94.30;;;;;;4995777;28;20050;-42
2022/05/11 00:52:20;;;;;;;11.23;4.97;;;14.70;94.20;;;;;;5013456;28;20050;-42
2022/05/11 00:54:48;;;;;;;11.88;5.20;;;14.70;94.60;;;;;;5010824;28;20498;-42
2022/05/11 00:57:17;;;;;;;10.15;4.90;;;14.70;94.60;;;;;;5000817;28;20049;-42
2022/05/11 00:59:45;;;;;;;9.52;4.55;;;14.70;94.60;;;;;;5011612;28;20053;-42
2022/05/11 01:02:12;;;;;;;8.25;4.50;;;14.70;94.50;;;;;;5002764;28;20102;-42
2022/05/11 01:04:40;;;;;;;7.03;4.63;;;14.60;94.70;;;;;;5011398;28;20520;-41
2022/05/11 01:07:07;;;;;;;13.68;5.00;;;14.60;94.60;;;;;;5011584;28;20080;-42
2022/05/11 01:09:34;;;;;;;9.10;4.97;;;14.60;94.80;;;;;;5011931;28;20056;-42
2022/05/11 01:12:01;;;;;;;8.45;4.35;;;14.60;94.70;;;;;;5005250;28;20058;-42
2022/05/11 01:14:31;;;;;;;9.70;5.00;;;14.60;94.80;;;;;;5002105;28;20058;-42
2022/05/11 01:16:58;;;;;;;9.43;4.88;;;14.50;95.00;;;;;;5011676;28;20054;-42
2022/05/11 01:19:26;;;;;;;11.05;4.90;;;14.50;94.80;;;;;;5012343;28;20041;-42
2022/05/11 01:21:55;;;;;;;9.30;4.85;;;14.50;95.10;;;;;;5011538;28;20050;-42
2022/05/11 01:24:29;;;;;;;10.95;4.78;;;14.50;95.00;;;;;;5012008;28;20482;-42
2022/05/11 01:26:56;;;;;;;10.27;4.72;;;14.50;94.80;;;;;;5011046;28;20054;-42
2022/05/11 01:29:23;;;;;;;8.88;4.65;;;14.50;94.80;;;;;;5009770;28;20054;-42
2022/05/11 01:31:50;;;;;;;5.93;4.28;;;14.50;94.90;;;;;;4999280;28;20056;-42
2022/05/11 01:34:20;;;;;;;9.85;5.22;;;14.50;94.60;;;;;;5012300;28;20056;-42
2022/05/11 01:36:47;;;;;;;7.75;4.47;;;14.60;94.90;;;;;;5011979;28;20054;-41
2022/05/11 01:39:13;;;;;;;10.68;4.68;;;14.50;94.90;;;;;;5012273;28;20071;-42
2022/05/11 01:41:42;;;;;;;7.75;4.80;;;14.50;95.00;;;;;;5011543;28;20044;-43
2022/05/11 01:44:11;;;;;;;8.80;4.72;;;14.50;95.10;;;;;;5011230;28;20478;-42
2022/05/11 01:46:37;;;;;;;10.95;4.95;;;14.50;95.10;;;;;;5008632;28;20046;-42
2022/05/11 01:49:04;;;;;;;12.18;5.30;;;14.50;95.20;;;;;;5007618;28;20049;-42
2022/05/11 01:51:31;;;;;;;9.15;4.78;;;14.50;95.20;;;;;;5003815;28;20050;-42
2022/05/11 01:53:58;;;;;;;11.27;5.03;;;14.50;95.20;;;;;;5009546;28;20508;-41
2022/05/11 01:56:25;;;;;;;8.35;5.15;;;14.50;95.20;;;;;;5012163;28;20053;-42
2022/05/11 01:58:54;;;;;;;7.55;5.07;;;14.50;95.30;;;;;;5012386;28;20053;-42
2022/05/11 02:01:21;;;;;;;9.25;4.80;;;14.40;95.20;;;;;;5003652;28;20402;-42
2022/05/11 02:03:48;;;;;;;7.55;4.68;;;14.40;95.50;;;;;;5011233;28;20042;-42
2022/05/11 02:08:59;;;;;;;12.35;5.60;;;14.40;95.40;;;;;;5011024;28;20054;-42
2022/05/11 02:11:26;;;;;;;11.38;5.30;;;14.40;95.50;;;;;;5008510;28;20469;-41
2022/05/11 02:13:56;;;;;;;12.50;5.63;;;14.50;95.60;;;;;;5011540;28;20132;-42
2022/05/11 02:16:23;;;;;;;11.43;5.45;;;14.50;95.70;;;;;;5001233;28;20073;-42
2022/05/11 02:18:50;;;;;;;9.63;5.22;;;14.40;95.60;;;;;;5009948;28;20045;-41
2022/05/11 02:21:17;;;;;;;8.63;5.40;;;14.50;95.60;;;;;;5004696;28;20097;-42
2022/05/11 02:23:44;;;;;;;11.10;4.95;;;14.50;95.80;;;;;;5011394;28;20496;-42
2022/05/11 02:26:11;;;;;;;13.40;5.75;;;14.50;95.90;;;;;;5011092;28;20046;-42
2022/05/11 02:28:38;;;;;;;11.18;5.28;;;14.40;96.30;;;;;;5007085;28;20406;-41
2022/05/11 02:31:06;;;;;;;11.30;5.93;;;14.50;96.40;;;;;;5011087;28;20409;-42
2022/05/11 02:33:33;;;;;;;8.80;5.05;;;14.40;96.60;;;;;;5010542;28;20062;-42
2022/05/11 02:35:59;;;;;;;10.70;5.43;;;14.40;96.60;;;;;;5011191;28;20057;-42
2022/05/11 02:38:27;;;;;;;10.23;5.63;;;14.40;96.90;;;;;;5010395;28;20100;-41
2022/05/11 02:40:54;;;;;;;8.00;5.65;;;14.40;97.00;;;;;;5011425;28;20136;-42
2022/05/11 02:43:21;;;;;;;9.98;5.72;;;14.40;97.20;;;;;;5009053;28;20050;-42
2022/05/11 02:45:48;;;;;;;10.93;4.80;;;14.40;97.20;;;;;;5011713;28;20054;-42
2022/05/11 02:48:18;;;;;;;8.20;4.65;;;14.40;96.90;;;;;;5011582;28;20072;-42
2022/05/11 02:50:46;;;;;;;13.93;5.43;;;14.40;96.80;;;;;;5011159;28;20054;-42
2022/05/11 02:53:13;;;;;;;7.50;3.95;;;14.40;97.00;;;;;;5010955;28;20050;-42
2022/05/11 02:55:41;;;;;;;10.23;5.25;;;14.50;96.80;;;;;;5011052;28;20042;-42
2022/05/11 02:58:09;;;;;;;9.23;4.45;;;14.50;96.80;;;;;;4999818;28;20065;-42
2022/05/11 03:00:36;;;;;;;10.80;4.43;;;14.50;97.00;;;;;;5007404;28;20053;-42
2022/05/11 03:03:03;;;;;;;10.20;4.50;;;14.50;96.80;;;;;;5009978;28;20057;-41
2022/05/11 03:05:31;;;;;;;12.38;4.25;;;14.50;96.80;;;;;;5005196;28;20058;-42
2022/05/11 03:07:58;;;;;;;6.47;4.30;;;14.50;96.90;;;;;;4998632;28;20141;-41
2022/05/11 03:10:25;;;;;;;10.07;3.67;;;14.50;96.70;;;;;;5010832;28;20050;-42
2022/05/11 03:12:52;;;;;;;9.55;4.28;;;14.50;96.70;;;;;;5012180;28;20046;-42
2022/05/11 03:15:18;;;;;;;10.68;4.15;;;14.50;96.60;;;;;;5014523;28;20100;-42
2022/05/11 03:17:45;;;;;;;8.57;3.88;;;14.50;96.70;;;;;;5015102;28;20053;-42
2022/05/11 03:20:12;;;;;;;10.63;3.78;;;14.50;96.60;;;;;;5011044;28;20085;-42
2022/05/11 03:22:40;;;;;;;9.52;4.18;;;14.50;96.60;;;;;;5013634;28;20042;-42
2022/05/11 03:25:08;;;;;;;9.85;3.90;;;14.50;96.50;;;;;;5014095;28;20052;-42
2022/05/11 03:27:35;;;;;;;11.88;4.55;;;14.50;96.60;;;;;;5010102;28;20387;-42
2022/05/11 03:30:01;;;;;;;10.95;4.40;;;14.50;96.70;;;;;;5006097;28;20419;-42
2022/05/11 03:35:12;;;;;;;10.32;4.40;;;14.50;96.70;;;;;;5012595;28;20042;-42
2022/05/11 03:37:40;;;;;;;9.50;4.82;;;14.50;96.60;;;;;;5014569;28;20054;-45
2022/05/11 03:40:08;;;;;;;9.73;4.72;;;14.50;96.70;;;;;;5014325;28;20568;-42
2022/05/11 03:42:35;;;;;;;8.23;4.22;;;14.50;96.70;;;;;;5014959;28;20060;-42
2022/05/11 03:45:09;;;;;;;10.05;4.70;;;14.50;96.70;;;;;;5010355;28;20134;-42
2022/05/11 03:47:36;;;;;;;6.72;3.53;;;14.50;96.90;;;;;;5003879;28;20053;-42
2022/05/11 03:50:03;;;;;;;8.65;3.97;;;14.40;96.80;;;;;;5012058;28;20046;-42
2022/05/11 03:52:30;;;;;;;10.05;4.70;;;14.50;96.70;;;;;;5013743;28;20060;-42
2022/05/11 03:54:58;;;;;;;9.00;4.40;;;14.50;96.70;;;;;;5013037;28;20402;-42
2022/05/11 03:57:24;;;;;;;9.50;4.00;;;14.50;96.80;;;;;;5013240;28;20128;-42
2022/05/11 03:59:51;;;;;;;9.88;4.47;;;14.50;96.70;;;;;;5013745;28;20050;-42
2022/05/11 04:02:18;;;;;;;10.30;3.92;;;14.50;96.70;;;;;;5013496;28;20410;-42
2022/05/11 04:04:44;;;;;;;10.40;5.00;;;14.50;96.50;;;;;;5009427;28;20054;-42
2022/05/11 04:07:11;;;;;;;9.27;4.13;;;14.50;96.60;;;;;;4999729;28;20053;-42
2022/05/11 04:09:38;;;;;;;12.57;4.43;;;14.50;96.40;;;;;;5012561;28;20050;-42
2022/05/11 04:12:07;;;;;;;9.40;4.68;;;14.50;96.30;;;;;;5013186;28;20050;-42
2022/05/11 04:14:34;;;;;;;14.43;4.88;;;14.50;96.60;;;;;;5013696;28;20282;-41
2022/05/11 04:17:00;;;;;;;7.78;3.95;;;14.50;96.40;;;;;;5009443;28;20056;-42
2022/05/11 04:19:27;;;;;;;12.32;4.75;;;14.50;96.40;;;;;;5010325;28;20489;-42
2022/05/11 04:21:54;;;;;;;11.02;4.68;;;14.50;96.60;;;;;;5009321;28;20061;-42
2022/05/11 04:24:21;;;;;;;8.65;4.30;;;14.50;96.60;;;;;;5011457;28;20053;-42
2022/05/11 04:26:48;;;;;;;10.45;5.18;;;14.50;96.60;;;;;;5004879;28;20058;-42
2022/05/11 04:29:16;;;;;;;8.98;4.68;;;14.50;96.60;;;;;;5011454;28;20520;-42
2022/05/11 04:31:43;;;;;;;10.32;4.70;;;14.50;96.60;;;;;;5013522;28;20068;-42
2022/05/11 04:34:11;;;;;;;11.27;4.78;;;14.50;96.80;;;;;;5013057;28;20046;-42
2022/05/11 04:36:38;;;;;;;9.77;4.07;;;14.50;97.00;;;;;;5012332;28;20100;-42
2022/05/11 04:39:05;;;;;;;9.73;4.50;;;14.50;97.00;;;;;;5012224;28;20049;-42
2022/05/11 04:41:32;;;;;;;16.40;5.00;;;14.50;97.10;;;;;;5009111;28;20056;-42
2022/05/11 04:43:58;;;;;;;13.32;5.45;;;14.60;97.20;;;;;;4998788;28;20525;-42
2022/05/11 04:46:26;;;;;;;11.95;4.75;;;14.50;97.30;;;;;;4973760;28;20058;-42
2022/05/11 04:49:16;;;;;;;11.32;4.95;;;14.50;97.50;;;;;;4992221;28;20050;-42
2022/05/11 04:51:40;;;;;;;12.85;5.20;;;14.50;97.70;;;;;;4985253;28;20054;-43
2022/05/11 04:54:07;;;;;;;13.90;5.30;;;14.50;97.80;;;;;;4976706;28;20050;-42
2022/05/11 04:56:33;;;;;;;14.48;5.97;;;14.50;97.90;;;;;;4998404;28;20053;-42
2022/05/11 04:59:00;;;;;;;11.75;5.18;;;14.50;98.00;;;;;;4971803;28;20054;-42
2022/05/11 05:01:28;;;;;;;12.45;5.82;;;14.50;98.20;;;;;;4993994;28;20046;-42
2022/05/11 05:03:55;;;;;;;16.52;6.82;;;14.50;98.20;;;;;;4993766;28;20407;-42
2022/05/11 05:06:21;;;;;;;16.35;6.75;;;14.50;98.30;;;;;;4991659;28;20050;-42
2022/05/11 05:08:48;;;;;;;16.85;6.57;;;14.50;98.60;;;;;;4990672;28;20054;-42
2022/05/11 05:11:15;;;;;;;12.57;6.00;;;14.50;98.50;;;;;;4979623;28;20446;-41
2022/05/11 05:13:41;;;;;;;11.95;6.15;;;14.50;98.60;;;;;;5000370;28;20050;-42
2022/05/11 05:16:08;;;;;;;17.08;6.28;;;14.50;98.50;;;;;;4998188;28;20050;-42
2022/05/11 05:18:36;;;;;;;12.88;6.13;;;14.60;98.60;;;;;;4987119;28;20038;-42
2022/05/11 05:21:03;;;;;;;17.60;6.40;;;14.60;98.70;;;;;;4971655;28;20056;-42
2022/05/11 05:23:29;;;;;;;13.55;6.18;;;14.60;98.80;;;;;;4990653;28;20414;-42
2022/05/11 05:25:56;;;;;;;14.45;6.13;;;14.60;98.80;;;;;;5000161;28;20050;-42
2022/05/11 05:31:11;;;;;;;13.48;5.47;;;14.70;98.90;;;;;;4986731;28;20058;-42
2022/05/11 05:33:40;;;;;;;11.27;5.97;;;14.70;98.70;;;;;;4987340;28;20054;-42
2022/05/11 05:36:07;;;;;;;13.45;6.50;;;14.70;98.80;;;;;;4972045;28;20537;-42
2022/05/11 05:38:34;;;;;;;17.67;5.82;;;14.80;98.80;;;;;;4975430;28;20046;-42
2022/05/11 05:41:01;;;;;;;15.85;5.78;;;14.80;98.70;;;;;;4969292;28;20038;-42
2022/05/11 05:43:27;;;;;;;16.60;5.97;;;14.90;98.60;;;;;;4993660;28;20058;-42
2022/05/11 05:45:55;;;;;;;12.88;6.30;;;14.90;98.50;;;;;;4993121;28;20081;-43
2022/05/11 05:48:22;;;;;;;13.95;6.15;;;14.90;98.40;;;;;;4990021;28;20068;-42
2022/05/11 05:50:50;;;;;;;13.45;5.53;;;14.90;98.40;;;;;;4992659;28;20050;-42
2022/05/11 05:53:19;;;;;;;12.48;5.55;;;14.90;98.20;;;;;;4990130;28;20109;-42
2022/05/11 05:55:47;;;;;;;10.80;5.72;;;15.00;98.10;;;;;;4968100;28;20528;-42
2022/05/11 05:58:14;;;;;;;11.98;5.93;;;15.00;98.10;;;;;;4991183;28;20487;-42
2022/05/11 06:00:41;;;;;;;13.75;5.80;;;15.10;98.00;;;;;;4986102;28;20043;-42
2022/05/11 06:03:08;;;;;;;12.02;5.45;;;15.10;97.90;;;;;;4994601;28;20062;-42
2022/05/11 06:05:34;;;;;;;13.20;5.05;;;15.10;97.90;;;;;;4968819;28;20069;-42
2022/05/11 06:08:02;;;;;;;20.13;5.18;;;15.20;97.80;;;;;;4992905;28;20054;-42
2022/05/11 06:10:29;;;;;;;15.98;5.68;;;15.20;97.60;;;;;;4992699;28;20062;-42
2022/05/11 06:12:56;;;;;;;10.88;4.97;;;15.20;97.50;;;;;;4992000;28;20054;-42
2022/05/11 06:15:23;;;;;;;12.23;5.00;;;15.30;97.40;;;;;;4992633;28;20390;-42
2022/05/11 06:17:49;;;;;;;14.30;5.53;;;15.30;97.30;;;;;;4998637;28;20414;-42
2022/05/11 06:20:16;;;;;;;13.93;4.97;;;15.30;97.20;;;;;;4992427;28;20058;-42
2022/05/11 06:22:43;;;;;;;13.45;4.93;;;15.40;97.00;;;;;;4975371;28;20056;-42
2022/05/11 06:25:11;;;;;;;14.63;5.25;;;15.40;97.00;;;;;;4992369;28;20061;-42
2022/05/11 06:27:37;;;;;;;12.02;4.80;;;15.40;96.90;;;;;;4992171;28;20072;-41
2022/05/11 06:30:05;;;;;;;11.38;5.07;;;15.50;96.70;;;;;;4976184;28;20052;-42
2022/05/11 06:32:32;;;;;;;12.88;4.97;;;15.50;96.60;;;;;;4975403;28;20506;-42
2022/05/11 06:34:59;;;;;;;11.68;4.30;;;15.60;96.50;;;;;;4991021;28;20501;-42
2022/05/11 06:37:25;;;;;;;13.20;4.25;;;15.60;96.50;;;;;;4991325;28;20057;-42
2022/05/11 06:39:52;;;;;;;12.23;4.22;;;15.70;96.40;;;;;;4991959;28;20133;-42
2022/05/11 06:42:21;;;;;;;13.32;5.45;;;15.70;96.20;;;;;;4992007;28;20054;-42
2022/05/11 06:44:48;;;;;;;11.27;4.90;;;15.80;96.10;;;;;;5011058;28;20494;-42
2022/05/11 06:47:14;;;;;;;9.50;4.50;;;15.90;95.80;;;;;;5011653;28;20425;-42
2022/05/11 06:49:41;;;;;;;12.05;4.68;;;15.90;95.70;;;;;;4997882;28;20053;-43
2022/05/11 06:52:08;;;;;;;18.85;4.88;;;16.00;95.60;;;;;;5014197;28;20060;-42
2022/05/11 07:00:13;;;;;;;10.48;4.32;;;16.20;95.10;;;;;;4983793;28;20054;-42
2022/05/11 07:02:40;;;;;;;12.18;3.63;;;16.20;94.90;;;;;;4986263;28;20050;-42
2022/05/11 07:05:07;;;;;;;12.93;4.05;;;16.30;94.60;;;;;;5010625;28;20478;-42
2022/05/11 07:07:34;;;;;;;10.85;4.38;;;16.30;94.40;;;;;;5014495;28;20042;-42
2022/05/11 07:10:01;;;;;;;10.75;3.63;;;16.40;94.30;;;;;;5015660;28;20058;-42
2022/05/11 07:12:33;;;;;;;13.98;4.30;;;16.40;94.20;;;;;;5015015;28;20133;-42
2022/05/11 07:15:00;;;;;;;12.90;4.05;;;16.50;94.10;;;;;;5017254;28;20115;-42
2022/05/11 07:17:30;;;;;;;11.65;3.88;;;16.60;94.00;;;;;;4998304;28;20053;-42
2022/05/11 07:19:57;;;;;;;17.08;4.00;;;16.70;93.80;;;;;;5012781;28;20056;-42
2022/05/11 07:22:24;;;;;;;11.25;3.97;;;16.70;93.60;;;;;;5013634;28;20063;-42
2022/05/11 07:24:50;;;;;;;18.58;4.00;;;16.80;93.50;;;;;;5007298;28;20085;-42
2022/05/11 07:27:17;;;;;;;13.70;3.67;;;16.90;93.30;;;;;;5015261;28;20058;-42
2022/05/11 07:29:45;;;;;;;10.82;2.83;;;17.00;93.10;;;;;;5015361;28;20053;-42
2022/05/11 07:32:12;;;;;;;11.88;3.33;;;17.00;92.80;;;;;;5011903;28;20418;-42
2022/05/11 07:34:39;;;;;;;15.23;3.30;;;17.10;92.70;;;;;;4994665;28;20077;-42
2022/05/11 07:37:06;;;;;;;10.18;3.08;;;17.20;92.50;;;;;;4997298;28;20042;-43
2022/05/11 07:39:33;;;;;;;12.20;2.40;;;17.20;92.40;;;;;;5014997;28;20053;-42
2022/05/11 07:42:00;;;;;;;10.25;3.15;;;17.30;92.20;;;;;;5014569;28;20049;-42
2022/05/11 07:44:26;;;;;;;11.65;2.90;;;17.40;91.80;;;;;;4997870;28;20050;-42
2022/05/11 07:46:54;;;;;;;13.10;2.70;;;17.40;91.50;;;;;;4995115;28;20050;-41
2022/05/11 07:49:22;;;;;;;9.50;2.70;;;17.50;91.20;;;;;;4995382;28;20050;-43
2022/05/11 07:51:49;;;;;;;12.35;2.90;;;17.50;91.00;;;;;;4995044;28;20112;-42
2022/05/11 07:54:16;;;;;;;8.60;2.67;;;17.50;91.00;;;;;;4973510;28;20077;-42
2022/05/11 08:02:13;;;;;;;11.88;2.70;;;17.50;90.50;;;;;;4990451;28;20062;-43
2022/05/11 08:04:41;;;;;;;15.77;2.78;;;17.50;90.30;;;;;;4992596;28;20397;-42
2022/05/11 08:07:08;;;;;;;12.80;2.80;;;17.50;90.20;;;;;;4993660;28;20101;-42
2022/05/11 08:09:34;;;;;;;12.57;2.60;;;17.60;90.10;;;;;;4996803;28;20042;-43
2022/05/11 08:12:01;;;;;;;13.52;3.20;;;17.70;90.20;;;;;;4995010;28;20608;-43
2022/05/11 08:14:28;;;;;;;9.55;2.70;;;17.90;89.90;;;;;;4998178;28;20130;-42
2022/05/11 08:16:54;;;;;;;10.65;2.45;;;18.00;89.00;;;;;;4979170;28;20090;-42
2022/05/11 08:19:23;;;;;;;10.23;2.50;;;18.10;88.70;;;;;;4994036;28;20066;-42
2022/05/11 08:21:49;;;;;;;11.32;2.60;;;18.30;88.40;;;;;;4978989;28;20050;-41
2022/05/11 08:24:16;;;;;;;12.05;2.40;;;18.30;88.00;;;;;;4976491;28;20133;-42
2022/05/11 08:26:43;;;;;;;11.85;2.50;;;18.40;87.10;;;;;;4994420;28;20517;-42
2022/05/11 08:29:10;;;;;;;9.40;2.05;;;18.50;86.80;;;;;;4977046;28;20050;-43
2022/05/11 08:34:22;;;;;;;14.90;2.38;;;18.80;86.50;;;;;;4994452;28;20050;-43
2022/05/11 08:36:49;;;;;;;10.50;2.20;;;19.00;85.10;;;;;;4994206;28;20046;-43
2022/05/11 08:39:16;;;;;;;8.23;2.45;;;19.10;85.20;;;;;;4993648;28;20509;-42
2022/05/11 08:41:45;;;;;;;13.15;2.60;;;19.20;83.70;;;;;;4977038;28;20050;-43
2022/05/11 08:44:13;;;;;;;15.05;2.53;;;19.20;83.30;;;;;;5002637;28;20056;-42
2022/05/11 08:46:47;;;;;;;8.90;2.03;;;19.30;82.60;;;;;;5010361;28;20120;-42
2022/05/11 08:49:21;;;;;;;14.75;2.75;;;19.30;82.60;;;;;;5012475;28;20503;-42
2022/05/11 08:51:52;;;;;;;18.83;4.15;;;19.40;81.60;;;;;;5006996;28;20457;-42
2022/05/11 08:54:21;;;;;;;;;;;19.50;82.00;;;;;;5008223;28;20446;-42
2022/05/11 08:56:48;;;;;;;11.98;2.33;;;19.50;82.50;;;;;;5007590;28;19922;-42
2022/05/11 08:59:19;;;;;;;16.38;2.65;;;19.50;82.30;;;;;;5012301;28;20450;-42
2022/05/11 09:01:47;;;;;;;10.43;2.50;;;19.60;81.90;;;;;;5002856;28;20093;-42
2022/05/11 09:04:16;;;;;;;9.27;2.55;;;19.70;82.60;;;;;;5012491;28;20050;-42
2022/05/11 09:06:44;;;;;;;14.98;2.25;;;19.80;81.30;;;;;;5011071;28;20045;-42
2022/05/11 09:09:14;;;;;;;13.05;2.30;;;19.90;81.60;;;;;;5017300;28;20064;-42
2022/05/11 09:11:42;;;;;;;30.92;6.10;;;20.10;80.90;;;;;;5009543;28;20052;-42
2022/05/11 09:14:09;;;;;;;13.88;2.85;;;20.30;80.40;;;;;;5012478;28;20104;-42
2022/05/11 09:16:39;;;;;;;11.57;2.80;;;20.40;79.70;;;;;;5011098;28;20046;-42
2022/05/11 09:19:13;;;;;;;14.68;2.65;;;20.40;78.60;;;;;;5010945;28;20394;-43
2022/05/11 09:21:41;;;;;;;14.07;2.72;;;20.40;79.00;;;;;;5011284;28;20084;-42
2022/05/11 09:24:22;;;;;;;9.52;1.90;;;20.30;79.00;;;;;;5010824;28;20046;-43
2022/05/11 09:27:01;;;;;;;11.98;2.75;;;20.40;78.60;;;;;;5013075;28;20060;-43
2022/05/11 09:29:33;;;;;;;14.13;2.72;;;20.60;78.30;;;;;;5012171;28;20064;-43
2022/05/11 09:32:20;;;;;;;12.25;2.53;;;20.90;78.10;;;;;;4997698;28;20141;-42
2022/05/11 09:34:46;;;;;;;13.18;2.63;;;21.00;77.20;;;;;;5010810;28;20065;-42
2022/05/11 09:37:24;;;;;;;13.55;2.28;;;21.00;76.40;;;;;;5008525;28;20487;-43
2022/05/11 09:39:53;;;;;;;17.02;2.15;;;21.00;75.80;;;;;;5011150;28;20085;-42
2022/05/11 09:42:21;;;;;;;24.67;2.70;;;20.90;76.00;;;;;;5009189;28;20117;-42
2022/05/11 09:44:49;;;;;;;15.65;1.88;;;20.90;75.10;;;;;;5009242;28;20053;-42
2022/05/11 09:47:29;;;;;;;9.45;2.05;;;20.90;74.60;;;;;;5011540;28;20115;-42
2022/05/11 09:49:57;;;;;;;10.97;1.90;;;21.00;74.60;;;;;;5009422;28;20046;-42
2022/05/11 09:52:35;;;;;;;10.07;2.65;;;21.30;74.70;;;;;;5008618;28;20483;-42
2022/05/11 09:55:06;;;;;;;11.13;1.77;;;21.60;73.90;;;;;;5009853;28;20485;-42
2022/05/11 09:57:33;;;;;;;13.30;1.80;;;21.90;71.90;;;;;;5011343;28;20045;-42
2022/05/11 10:00:19;;;;;;;8.77;2.13;;;22.00;71.20;;;;;;5010667;28;20100;-42
2022/05/11 10:02:48;;;;;;;9.23;1.80;;;22.20;70.00;;;;;;5011487;28;20477;-42
2022/05/11 10:05:16;;;;;;;8.55;1.70;;;22.30;69.90;;;;;;5012323;28;20100;-43
2022/05/11 10:07:45;;;;;;;7.30;1.35;;;22.50;68.80;;;;;;5011253;28;20049;-42
2022/05/11 10:10:16;;;;;;;8.48;1.73;;;22.60;68.10;;;;;;5011820;28;20405;-43
2022/05/11 10:12:42;;;;;;;5.07;1.23;;;22.80;68.20;;;;;;5011170;28;20108;-43
2022/05/11 10:23:29;;;;;;;7.82;1.45;;;23.30;64.40;;;;;;5006109;28;20406;-42
2022/05/11 10:25:58;;;;;;;11.07;1.92;;;23.20;63.10;;;;;;5012412;28;20057;-43
2022/05/11 10:28:30;;;;;;;9.70;1.70;;;23.00;63.40;;;;;;5011562;28;20053;-43
2022/05/11 10:30:59;;;;;;;6.35;1.50;;;23.10;63.40;;;;;;5011353;28;20049;-43
2022/05/11 10:33:54;;;;;;;11.90;2.22;;;23.10;64.00;;;;;;5012044;28;20402;-43
2022/05/11 10:36:26;;;;;;;10.38;2.15;;;23.30;63.70;;;;;;5003877;28;20049;-42
2022/05/11 10:38:59;;;;;;;10.13;1.60;;;23.40;63.10;;;;;;5011080;28;20445;-43
2022/05/11 10:41:31;;;;;;;9.05;1.58;;;23.30;63.30;;;;;;5018916;28;20054;-42
2022/05/11 10:44:03;;;;;;;9.27;1.80;;;23.30;63.60;;;;;;5010618;28;20058;-42
2022/05/11 10:46:35;;;;;;;13.05;2.20;;;23.30;64.10;;;;;;5014108;28;20045;-42
2022/05/11 10:49:35;;;;;;;11.98;2.28;;;23.50;63.90;;;;;;5012591;28;20414;-43
2022/05/11 10:52:21;;;;;;;13.85;1.70;;;23.60;63.80;;;;;;4987381;28;20054;-42
2022/05/11 10:54:52;;;;;;;12.70;2.08;;;23.80;63.50;;;;;;5008519;28;20090;-42
2022/05/11 10:57:24;;;;;;;8.55;2.00;;;23.80;63.30;;;;;;5011672;28;20046;-42
2022/05/11 11:00:09;;;;;;;10.13;1.63;;;23.60;63.30;;;;;;5010833;28;20056;-43
2022/05/11 11:02:59;;;;;;;10.63;1.83;;;23.70;62.80;;;;;;5005497;28;20049;-42
2022/05/11 11:05:27;;;;;;;13.80;2.25;;;23.70;62.00;;;;;;4968915;28;20061;-43
2022/05/11 11:07:59;;;;;;;14.25;2.08;;;23.70;62.00;;;;;;5008113;28;20405;-43
2022/05/11 11:10:28;;;;;;;10.35;2.25;;;23.80;61.60;;;;;;5008241;28;20056;-43
2022/05/11 11:13:15;;;;;;;12.27;2.25;;;24.00;60.90;;;;;;5004250;28;20082;-43
2022/05/11 11:15:43;;;;;;;13.85;2.30;;;23.90;61.10;;;;;;5005729;28;20571;-43
2022/05/11 11:18:11;;;;;;;12.52;2.50;;;23.90;61.50;;;;;;5011575;28;20046;-43
2022/05/11 11:20:39;;;;;;;13.82;2.90;;;23.80;62.10;;;;;;5014368;28;20479;-42
2022/05/11 11:23:13;;;;;;;11.18;2.00;;;23.50;62.00;;;;;;5007335;28;20085;-42
2022/05/11 11:25:52;;;;;;;9.90;2.35;;;23.30;62.70;;;;;;5007306;28;20567;-42
2022/05/11 11:28:20;;;;;;;14.40;2.30;;;23.20;62.40;;;;;;5011392;28;20387;-42
2022/05/11 11:31:20;;;;;;;9.55;2.08;;;23.20;62.30;;;;;;5007313;28;20124;-43
2022/05/11 11:34:11;;;;;;;13.35;2.20;;;23.30;61.90;;;;;;5008555;28;20137;-42
2022/05/11 11:36:40;;;;;;;13.32;2.70;;;23.30;61.50;;;;;;5007874;28;20137;-42
2022/05/11 11:39:07;;;;;;;10.57;2.33;;;23.30;62.70;;;;;;5016337;28;20505;-42
2022/05/11 11:41:40;;;;;;;9.05;1.85;;;23.30;61.90;;;;;;5011921;28;20508;-42
2022/05/11 11:44:27;;;;;;;6.28;1.60;;;23.30;61.70;;;;;;5005307;28;20046;-42
2022/05/11 11:46:54;;;;;;;9.95;2.08;;;23.30;62.80;;;;;;5017881;28;20489;-42
2022/05/11 11:49:41;;;;;;;8.77;2.03;;;23.40;61.90;;;;;;5010233;28;20042;-42
2022/05/11 11:52:09;;;;;;;10.23;2.22;;;23.60;62.50;;;;;;5010761;28;20046;-42
2022/05/11 11:54:47;;;;;;;11.45;2.20;;;23.80;61.80;;;;;;5006698;28;20133;-43
2022/05/11 11:57:27;;;;;;;7.38;2.28;;;24.00;60.50;;;;;;5014500;28;20126;-42
2022/05/11 11:59:57;;;;;;;10.80;2.00;;;24.10;60.60;;;;;;5013849;28;20054;-43
2022/05/11 12:02:27;;;;;;;11.05;1.92;;;24.30;60.40;;;;;;5013594;28;20045;-43
2022/05/11 12:05:13;;;;;;;10.23;2.13;;;24.40;60.00;;;;;;5011455;28;20049;-42
2022/05/11 12:16:02;;;;;;;12.68;2.30;;;24.70;59.10;;;;;;5007422;28;20177;-42
2022/05/11 12:18:31;;;;;;;14.23;2.58;;;24.70;59.50;;;;;;5014150;28;20160;-43
2022/05/11 12:20:58;;;;;;;10.60;2.38;;;24.70;58.60;;;;;;5014418;28;20517;-43
2022/05/11 12:23:26;;;;;;;9.98;2.20;;;24.70;58.70;;;;;;5014210;28;20056;-43
2022/05/11 12:25:54;;;;;;;12.57;1.90;;;24.80;58.60;;;;;;5014297;28;20050;-42
2022/05/11 12:28:22;;;;;;;11.32;2.70;;;24.90;58.10;;;;;;5005154;28;20053;-42
2022/05/11 12:30:49;;;;;;;11.57;2.50;;;24.90;57.30;;;;;;5012625;28;20509;-43
2022/05/11 12:33:23;;;;;;;13.93;2.45;;;25.00;56.90;;;;;;5014341;28;20064;-43
2022/05/11 12:35:50;;;;;;;11.23;2.17;;;25.10;56.50;;;;;;5005684;28;20057;-43
2022/05/11 12:38:26;;;;;;;10.27;2.08;;;24.90;56.60;;;;;;5004760;28;20133;-43
2022/05/11 12:40:53;;;;;;;11.27;2.38;;;24.90;57.30;;;;;;5014100;28;20060;-43
2022/05/11 12:43:23;;;;;;;13.88;2.33;;;25.00;57.00;;;;;;5013821;28;20057;-43
2022/05/11 12:45:51;;;;;;;12.10;2.37;;;25.20;56.80;;;;;;5002296;28;20129;-43
2022/05/11 12:48:18;;;;;;;11.77;2.22;;;25.30;56.80;;;;;;5010206;28;20439;-43
2022/05/11 12:50:51;;;;;;;10.85;2.05;;;25.50;57.00;;;;;;5013739;28;20053;-43
2022/05/11 12:53:22;;;;;;;10.45;2.50;;;25.50;56.60;;;;;;5013951;28;20124;-43
2022/05/11 12:55:51;;;;;;;16.40;2.88;;;25.30;55.90;;;;;;5013711;28;20041;-43
2022/05/11 12:58:18;;;;;;;14.38;3.05;;;25.20;56.30;;;;;;5013482;28;20037;-43
2022/05/11 13:00:45;;;;;;;13.10;2.53;;;25.00;56.10;;;;;;5013770;28;20045;-42
2022/05/11 13:03:21;;;;;;;10.93;2.55;;;24.90;57.00;;;;;;5013765;28;20041;-42
2022/05/11 13:05:50;;;;;;;13.75;2.80;;;24.90;57.30;;;;;;5010019;28;20289;-42
2022/05/11 13:08:16;;;;;;;15.05;2.78;;;24.90;56.50;;;;;;5012258;28;20046;-42
2022/05/11 13:10:43;;;;;;;15.32;2.65;;;24.90;56.20;;;;;;5009856;28;20081;-42
2022/05/11 13:13:12;;;;;;;13.52;2.67;;;24.80;55.70;;;;;;5005539;28;20045;-42
2022/05/11 13:15:41;;;;;;;16.35;3.03;;;24.70;56.10;;;;;;5005583;28;20056;-42
2022/05/11 13:18:10;;;;;;;9.93;2.42;;;24.60;56.70;;;;;;5013151;28;20045;-43
2022/05/11 13:20:38;;;;;;;14.82;2.70;;;24.40;57.20;;;;;;5009976;28;20414;-43
2022/05/11 13:23:20;;;;;;;16.98;2.83;;;24.40;57.10;;;;;;5012099;28;20417;-42
2022/05/11 13:25:48;;;;;;;14.40;2.72;;;24.40;56.60;;;;;;5011660;28;20065;-42
2022/05/11 13:28:16;;;;;;;15.48;2.80;;;24.30;56.60;;;;;;5005515;28;20058;-42